Time;durP1;ratioP1;P1;durP2;ratioP2;P2;SDS_P1;SDS_P2;PMS_P1;PMS_P2;Temp;Humidity;BMP_temperature;BMP_pressure;BME280_temperature;BME280_humidity;BME280_pressure;Samples;Min_cycle;Max_cycle;Signal;HPM_P1;HPM_P2
2023/10/01 00:00:43;;;;;;;9.10;5.33;;;15.60;99.90;;;;;;5112858;28;20183;-74
2023/10/01 00:03:09;;;;;;;7.60;5.10;;;15.60;99.90;;;;;;5113181;28;20190;-74
2023/10/01 00:05:35;;;;;;;9.67;5.07;;;15.60;99.90;;;;;;5111680;28;20630;-73
2023/10/01 00:08:02;;;;;;;10.13;5.30;;;15.60;99.90;;;;;;5113081;28;20167;-73
2023/10/01 00:10:28;;;;;;;7.70;4.83;;;15.60;99.90;;;;;;5113001;28;20215;-73
2023/10/01 00:12:58;;;;;;;10.27;5.50;;;15.60;99.90;;;;;;5113071;28;20170;-74
2023/10/01 00:15:25;;;;;;;12.87;5.87;;;15.60;99.90;;;;;;5112536;28;20275;-74
2023/10/01 00:17:52;;;;;;;6.83;5.10;;;15.60;99.90;;;;;;5111471;28;20221;-74
2023/10/01 00:20:22;;;;;;;9.93;4.97;;;15.60;99.90;;;;;;5115004;28;20209;-72
2023/10/01 00:22:50;;;;;;;9.77;5.60;;;15.70;99.90;;;;;;5116396;28;20215;-72
2023/10/01 00:25:21;;;;;;;8.80;5.53;;;15.60;99.90;;;;;;5116463;28;20254;-74
2023/10/01 00:27:47;;;;;;;7.20;5.50;;;15.60;99.90;;;;;;5116421;28;20167;-73
2023/10/01 00:30:13;;;;;;;10.20;5.17;;;15.50;99.90;;;;;;5114789;28;20568;-72
2023/10/01 00:32:39;;;;;;;8.97;5.17;;;15.50;99.90;;;;;;5116264;28;20527;-73
2023/10/01 00:35:06;;;;;;;10.63;5.27;;;15.50;99.90;;;;;;5116299;28;20319;-72
2023/10/01 00:37:35;;;;;;;9.37;5.63;;;15.50;99.90;;;;;;5116484;28;20178;-73
2023/10/01 00:40:05;;;;;;;6.97;4.87;;;15.40;99.90;;;;;;5116417;28;20171;-73
2023/10/01 00:42:33;;;;;;;8.67;5.40;;;15.50;99.90;;;;;;5116242;28;20175;-74
2023/10/01 00:44:58;;;;;;;6.77;4.70;;;15.40;99.90;;;;;;5115538;28;20174;-73
2023/10/01 00:47:26;;;;;;;8.97;5.23;;;15.50;99.90;;;;;;5116288;28;20561;-74
2023/10/01 00:49:54;;;;;;;8.03;5.10;;;15.40;99.90;;;;;;5116009;28;20256;-73
2023/10/01 00:52:20;;;;;;;7.40;5.27;;;15.40;99.90;;;;;;5116193;27;20255;-73
2023/10/01 00:54:47;;;;;;;9.30;5.93;;;15.20;99.90;;;;;;5116090;28;20224;-73
2023/10/01 00:57:15;;;;;;;9.10;5.67;;;15.20;99.90;;;;;;5114767;28;20171;-73
2023/10/01 00:59:43;;;;;;;10.00;5.80;;;15.10;99.90;;;;;;5115486;28;20246;-73
2023/10/01 01:02:09;;;;;;;9.73;5.70;;;15.10;99.90;;;;;;5114572;28;20179;-74
2023/10/01 01:04:45;;;;;;;10.37;5.87;;;15.00;99.90;;;;;;5097597;28;20245;-73
2023/10/01 01:07:20;;;;;;;11.93;6.10;;;15.10;99.90;;;;;;5115814;28;20167;-73
2023/10/01 01:09:47;;;;;;;13.00;7.83;;;15.10;99.90;;;;;;5115731;28;20216;-72
2023/10/01 01:12:13;;;;;;;9.10;5.50;;;15.00;99.90;;;;;;5115207;28;20251;-72
2023/10/01 01:14:45;;;;;;;8.93;5.63;;;15.10;99.90;;;;;;5115599;28;20258;-72
2023/10/01 01:17:14;;;;;;;9.27;5.40;;;15.20;99.90;;;;;;5115430;27;20167;-73
2023/10/01 01:19:42;;;;;;;8.10;5.43;;;15.30;99.90;;;;;;5115579;28;20175;-73
2023/10/01 01:22:28;;;;;;;11.77;6.13;;;15.30;99.90;;;;;;5115392;28;20701;-73
2023/10/01 01:24:57;;;;;;;11.73;5.93;;;15.30;99.90;;;;;;5115521;28;20213;-74
2023/10/01 01:27:23;;;;;;;9.00;5.53;;;15.30;99.90;;;;;;5115232;28;20171;-74
2023/10/01 01:29:50;;;;;;;10.57;5.23;;;15.40;99.90;;;;;;5115384;28;20211;-73
2023/10/01 01:32:16;;;;;;;8.07;5.63;;;15.40;99.90;;;;;;5112969;28;20171;-72
2023/10/01 01:34:46;;;;;;;7.90;5.47;;;15.40;99.90;;;;;;5115256;27;20236;-72
2023/10/01 01:37:46;;;;;;;6.93;5.40;;;15.40;99.90;;;;;;5115116;28;20174;-73
2023/10/01 01:40:54;;;;;;;12.67;6.00;;;15.40;99.90;;;;;;5115151;28;20628;-73
2023/10/01 01:43:38;;;;;;;9.50;6.00;;;15.40;99.90;;;;;;5103692;28;20194;-73
2023/10/01 01:45:55;;;;;;;13.00;6.00;;;15.40;99.90;;;;;;5111841;28;20171;-72
2023/10/01 01:48:30;;;;;;;9.93;6.40;;;15.40;99.90;;;;;;5114803;28;20620;-72
2023/10/01 01:51:03;;;;;;;8.17;5.83;;;15.40;99.90;;;;;;5115059;28;20178;-73
2023/10/01 01:53:36;;;;;;;8.47;6.00;;;15.40;99.90;;;;;;5113523;28;20163;-72
2023/10/01 01:56:09;;;;;;;9.20;6.03;;;15.50;99.90;;;;;;5114490;28;20626;-72
2023/10/01 01:58:36;;;;;;;12.23;6.37;;;15.50;99.90;;;;;;5114824;28;20171;-73
2023/10/01 02:01:08;;;;;;;10.60;6.03;;;15.50;99.90;;;;;;5114922;28;20175;-72
2023/10/01 02:03:38;;;;;;;8.03;5.33;;;15.50;99.90;;;;;;5114843;28;20178;-74
2023/10/01 02:06:08;;;;;;;9.10;5.50;;;15.50;99.90;;;;;;5114472;28;20159;-73
2023/10/01 02:11:38;;;;;;;8.87;5.40;;;15.50;99.90;;;;;;5031450;28;20304;-72
2023/10/01 02:14:05;;;;;;;10.30;6.10;;;15.50;99.90;;;;;;5031983;28;20298;-73
2023/10/01 02:19:12;;;;;;;13.03;5.90;;;15.50;99.90;;;;;;5031664;28;20174;-72
2023/10/01 02:21:59;;;;;;;10.53;6.07;;;15.50;99.90;;;;;;5031336;28;20224;-72
2023/10/01 02:25:13;;;;;;;10.80;6.47;;;15.50;99.90;;;;;;5031152;28;20169;-72
2023/10/01 02:27:18;;;;;;;11.47;6.57;;;15.50;99.90;;;;;;5024513;28;20202;-73
2023/10/01 02:29:45;;;;;;;11.23;6.30;;;15.50;99.90;;;;;;5031482;28;20217;-73
2023/10/01 02:32:15;;;;;;;12.43;6.43;;;15.50;99.90;;;;;;5031551;28;20533;-73
2023/10/01 02:34:42;;;;;;;10.20;6.10;;;15.50;99.90;;;;;;5031320;28;20205;-73
2023/10/01 02:37:09;;;;;;;11.00;7.13;;;15.50;99.90;;;;;;5031425;28;20181;-73
2023/10/01 02:39:37;;;;;;;10.53;6.47;;;15.50;99.90;;;;;;5031048;28;20170;-74
2023/10/01 02:44:33;;;;;;;14.00;6.63;;;15.50;99.90;;;;;;5031477;28;20563;-72
2023/10/01 02:47:18;;;;;;;11.47;6.30;;;15.50;99.90;;;;;;5036958;28;20185;-72
2023/10/01 02:49:52;;;;;;;12.80;6.60;;;15.50;99.90;;;;;;5112622;28;20670;-72
2023/10/01 02:52:21;;;;;;;10.93;6.23;;;15.50;99.90;;;;;;5113788;28;20184;-73
2023/10/01 02:54:53;;;;;;;13.47;6.90;;;15.50;99.90;;;;;;5113414;28;20175;-72
2023/10/01 02:57:26;;;;;;;11.03;6.87;;;15.50;99.90;;;;;;5113819;28;20163;-72
2023/10/01 03:02:53;;;;;;;11.53;6.90;;;15.50;99.90;;;;;;5113606;28;20566;-73
2023/10/01 03:05:28;;;;;;;11.63;6.67;;;15.40;99.90;;;;;;5113583;28;20200;-72
2023/10/01 03:07:57;;;;;;;13.30;6.77;;;15.40;99.90;;;;;;5113344;28;20174;-73
2023/10/01 03:10:26;;;;;;;11.80;7.00;;;15.40;99.90;;;;;;5112162;28;20206;-72
2023/10/01 03:13:16;;;;;;;11.47;6.97;;;15.50;99.90;;;;;;5113467;28;20167;-73
2023/10/01 03:15:44;;;;;;;10.70;6.30;;;15.40;99.90;;;;;;5113478;28;20677;-73
2023/10/01 03:18:34;;;;;;;10.90;6.50;;;15.40;99.90;;;;;;5113297;28;20188;-73
2023/10/01 03:26:04;;;;;;;12.27;7.37;;;15.50;99.90;;;;;;5113508;28;20175;-72
2023/10/01 03:29:14;;;;;;;11.43;6.67;;;15.40;99.90;;;;;;5113196;28;20177;-73
2023/10/01 03:31:21;;;;;;;11.63;7.40;;;15.50;99.90;;;;;;5113070;28;20258;-73
2023/10/01 03:33:53;;;;;;;12.17;7.27;;;15.40;99.90;;;;;;5112933;28;20160;-72
2023/10/01 03:36:25;;;;;;;12.47;7.73;;;15.40;99.90;;;;;;5113275;28;20627;-72
2023/10/01 03:38:59;;;;;;;13.60;7.50;;;15.40;99.90;;;;;;5112945;28;20178;-73
2023/10/01 03:41:27;;;;;;;13.73;7.20;;;15.40;99.90;;;;;;5111744;28;20644;-72
2023/10/01 03:43:56;;;;;;;11.40;6.80;;;15.40;99.90;;;;;;5112946;28;20695;-73
2023/10/01 03:49:33;;;;;;;13.93;7.10;;;15.40;99.90;;;;;;5112597;28;20218;-72
2023/10/01 03:51:58;;;;;;;12.60;7.33;;;15.40;99.90;;;;;;5112649;28;20300;-72
2023/10/01 03:57:12;;;;;;;10.93;6.83;;;15.40;99.90;;;;;;5117177;28;20212;-72
2023/10/01 03:59:40;;;;;;;13.03;7.90;;;15.40;99.90;;;;;;5117017;28;20171;-73
2023/10/01 04:02:27;;;;;;;12.40;6.83;;;15.40;99.90;;;;;;5116949;28;20171;-73
2023/10/01 04:04:58;;;;;;;12.13;7.17;;;15.40;99.90;;;;;;5116351;28;20175;-72
2023/10/01 04:07:42;;;;;;;14.07;7.33;;;15.40;99.90;;;;;;5116420;28;20171;-72
2023/10/01 04:10:14;;;;;;;10.90;7.07;;;15.40;99.90;;;;;;5116723;28;20211;-71
2023/10/01 04:12:50;;;;;;;13.97;7.40;;;15.50;99.90;;;;;;5116617;28;20171;-73
2023/10/01 04:15:29;;;;;;;10.70;6.93;;;15.40;99.90;;;;;;5116530;28;20616;-72
2023/10/01 04:23:47;;;;;;;13.30;7.37;;;15.50;99.90;;;;;;5116721;28;20201;-73
2023/10/01 04:26:16;;;;;;;12.30;6.80;;;15.50;99.90;;;;;;5116163;28;20159;-71
2023/10/01 04:28:54;;;;;;;13.33;7.20;;;15.50;99.90;;;;;;5116231;28;20797;-72
2023/10/01 04:31:42;;;;;;;13.63;7.70;;;15.50;99.90;;;;;;5116685;28;20174;-72
2023/10/01 04:34:11;;;;;;;13.47;7.57;;;15.50;99.90;;;;;;5116254;28;20174;-72
2023/10/01 04:36:50;;;;;;;13.23;7.10;;;15.40;99.90;;;;;;5115787;28;20201;-72
2023/10/01 04:39:17;;;;;;;12.37;7.50;;;15.40;99.90;;;;;;5116196;28;20630;-72
2023/10/01 04:41:45;;;;;;;12.63;7.87;;;15.40;99.90;;;;;;5116032;28;20163;-73
2023/10/01 04:44:13;;;;;;;13.07;7.30;;;15.40;99.90;;;;;;5114741;28;20712;-74
2023/10/01 04:46:45;;;;;;;11.73;7.87;;;15.40;99.90;;;;;;5115683;28;20174;-72
2023/10/01 04:49:27;;;;;;;14.50;7.70;;;15.40;99.90;;;;;;5116208;28;20213;-72
2023/10/01 04:51:57;;;;;;;12.40;7.30;;;15.40;99.90;;;;;;5116224;28;20167;-72
2023/10/01 04:54:25;;;;;;;11.23;7.47;;;15.30;99.90;;;;;;5115887;28;20174;-73
2023/10/01 04:56:51;;;;;;;15.53;8.17;;;15.30;99.90;;;;;;5115847;28;20193;-73
2023/10/01 04:59:20;;;;;;;13.03;7.60;;;15.30;99.90;;;;;;5115580;28;20275;-73
2023/10/01 05:01:56;;;;;;;13.10;7.93;;;15.30;99.90;;;;;;5115941;28;20187;-73
2023/10/01 05:04:26;;;;;;;11.57;7.20;;;15.30;99.90;;;;;;5115226;28;20174;-73
2023/10/01 05:07:04;;;;;;;12.40;7.70;;;15.30;99.90;;;;;;5114471;28;20647;-73
2023/10/01 05:09:33;;;;;;;14.17;8.20;;;15.30;99.90;;;;;;5115546;27;20213;-73
2023/10/01 05:12:01;;;;;;;15.70;8.33;;;15.30;99.90;;;;;;5115275;28;20179;-73
2023/10/01 05:14:28;;;;;;;15.73;8.20;;;15.30;99.90;;;;;;5115152;28;20210;-72
2023/10/01 05:16:54;;;;;;;15.17;7.93;;;15.20;99.90;;;;;;5115333;27;20164;-72
2023/10/01 05:19:23;;;;;;;12.63;8.33;;;15.10;99.90;;;;;;5113479;28;20274;-72
2023/10/01 05:21:50;;;;;;;13.17;8.20;;;15.10;99.90;;;;;;5114830;28;20230;-72
2023/10/01 05:24:35;;;;;;;12.20;8.03;;;15.10;99.90;;;;;;5115317;28;20179;-73
2023/10/01 05:27:18;;;;;;;15.70;8.27;;;15.00;99.90;;;;;;5115229;28;20246;-72
2023/10/01 05:29:45;;;;;;;11.17;7.40;;;15.00;99.90;;;;;;5115140;28;20238;-72
2023/10/01 05:32:14;;;;;;;13.10;8.13;;;15.00;99.90;;;;;;5115264;28;20163;-72
2023/10/01 05:34:46;;;;;;;11.50;7.47;;;15.00;99.90;;;;;;5114243;28;20240;-73
2023/10/01 05:37:36;;;;;;;14.33;7.93;;;15.00;99.90;;;;;;5115047;28;20216;-73
2023/10/01 05:40:00;;;;;;;16.03;8.20;;;15.00;99.90;;;;;;5114709;28;20207;-72
2023/10/01 05:42:28;;;;;;;16.03;8.57;;;15.00;99.90;;;;;;5114763;28;20182;-73
2023/10/01 05:44:54;;;;;;;13.83;8.20;;;15.10;99.90;;;;;;5113594;28;20513;-73
2023/10/01 05:47:22;;;;;;;13.90;8.40;;;15.10;99.90;;;;;;5114573;28;20570;-72
2023/10/01 05:49:53;;;;;;;16.20;8.50;;;15.10;99.90;;;;;;5114508;28;20277;-72
2023/10/01 05:52:20;;;;;;;13.37;8.17;;;15.10;99.90;;;;;;5114763;28;20163;-72
2023/10/01 05:54:52;;;;;;;18.77;9.17;;;15.20;99.90;;;;;;5114611;28;20171;-72
2023/10/01 05:57:21;;;;;;;13.37;8.20;;;15.20;99.90;;;;;;5114299;28;20182;-72
2023/10/01 05:59:56;;;;;;;12.67;7.97;;;15.20;99.90;;;;;;5114876;28;20179;-74
2023/10/01 06:02:41;;;;;;;12.87;8.20;;;15.20;99.90;;;;;;5114263;28;20171;-73
2023/10/01 06:05:25;;;;;;;13.20;7.93;;;15.20;99.90;;;;;;5114408;28;20182;-73
2023/10/01 06:07:53;;;;;;;12.13;7.60;;;15.30;99.90;;;;;;5114306;27;20163;-73
2023/10/01 06:10:19;;;;;;;17.67;7.90;;;15.30;99.90;;;;;;5114172;27;20211;-74
2023/10/01 06:12:51;;;;;;;13.80;8.20;;;15.50;99.90;;;;;;5113804;28;20320;-73
2023/10/01 06:15:20;;;;;;;17.77;8.73;;;15.60;99.90;;;;;;5114064;28;20202;-73
2023/10/01 06:17:49;;;;;;;16.23;8.60;;;15.70;99.90;;;;;;5113389;28;20171;-73
2023/10/01 06:20:26;;;;;;;13.33;7.80;;;15.80;99.90;;;;;;5113901;28;20316;-73
2023/10/01 06:22:55;;;;;;;12.03;8.20;;;15.80;99.90;;;;;;5113954;28;20207;-73
2023/10/01 06:25:37;;;;;;;14.90;8.00;;;15.90;99.90;;;;;;5113980;28;20172;-74
2023/10/01 06:28:08;;;;;;;14.67;7.87;;;16.00;99.90;;;;;;5114041;28;20642;-74
2023/10/01 06:30:34;;;;;;;15.50;8.47;;;16.10;99.90;;;;;;5114038;28;20206;-74
2023/10/01 06:33:00;;;;;;;11.83;8.43;;;16.30;99.90;;;;;;5113592;28;20163;-73
2023/10/01 06:35:26;;;;;;;16.00;8.20;;;16.40;99.90;;;;;;5113534;28;20531;-74
2023/10/01 06:37:53;;;;;;;13.07;8.40;;;16.50;99.90;;;;;;5113753;28;20182;-73
2023/10/01 06:40:31;;;;;;;14.60;8.52;;;16.60;99.90;;;;;;5113446;28;20201;-74
2023/10/01 06:43:00;;;;;;;14.63;7.70;;;16.80;99.90;;;;;;5113655;28;20179;-73
2023/10/01 06:45:41;;;;;;;12.02;8.13;;;16.90;99.90;;;;;;5113390;28;20174;-74
2023/10/01 06:48:14;;;;;;;16.17;8.55;;;17.10;99.90;;;;;;5113428;28;20182;-75
2023/10/01 06:50:40;;;;;;;12.82;8.23;;;17.30;99.90;;;;;;5113232;28;20252;-74
2023/10/01 06:53:07;;;;;;;14.60;8.48;;;17.80;99.90;;;;;;5113692;28;20163;-75
2023/10/01 06:55:36;;;;;;;13.38;7.45;;;18.80;99.90;;;;;;5113238;28;20194;-75
2023/10/01 06:58:06;;;;;;;13.65;8.10;;;20.20;99.90;;;;;;5112381;28;20220;-75
2023/10/01 07:00:35;;;;;;;11.50;7.38;;;21.80;99.90;;;;;;5113184;28;20216;-75
2023/10/01 07:03:22;;;;;;;13.52;8.52;;;23.10;99.60;;;;;;5113516;28;20175;-75
2023/10/01 07:05:55;;;;;;;12.00;8.40;;;23.40;98.00;;;;;;5113354;28;20525;-74
2023/10/01 07:08:37;;;;;;;14.45;7.80;;;25.00;96.20;;;;;;5113142;28;20286;-74
2023/10/01 07:11:11;;;;;;;13.75;8.07;;;26.20;91.40;;;;;;5113591;28;20658;-74
2023/10/01 07:13:38;;;;;;;15.13;7.72;;;26.80;89.70;;;;;;5112983;28;20207;-74
2023/10/01 07:16:04;;;;;;;11.73;8.20;;;27.30;85.30;;;;;;5112702;28;20199;-74
2023/10/01 07:18:30;;;;;;;10.98;7.95;;;28.40;80.30;;;;;;5112583;28;20177;-74
2023/10/01 07:21:00;;;;;;;11.65;8.13;;;28.20;75.10;;;;;;5113120;28;20307;-78
2023/10/01 07:23:26;;;;;;;10.93;8.38;;;28.00;74.50;;;;;;5113301;28;20637;-74
2023/10/01 07:26:00;;;;;;;10.68;8.00;;;28.40;74.60;;;;;;5113396;28;20175;-73
2023/10/01 07:28:26;;;;;;;13.13;8.60;;;28.10;73.30;;;;;;5112754;28;20177;-74
2023/10/01 07:30:56;;;;;;;12.45;8.73;;;28.70;72.30;;;;;;5116349;28;20167;-75
2023/10/01 07:33:22;;;;;;;13.35;8.65;;;29.10;69.00;;;;;;5117386;28;20163;-74
2023/10/01 07:36:01;;;;;;;12.98;7.80;;;29.00;67.80;;;;;;5116903;28;20182;-74
2023/10/01 07:38:46;;;;;;;13.55;8.57;;;29.20;68.20;;;;;;5116970;28;20179;-74
2023/10/01 07:41:16;;;;;;;12.05;8.60;;;29.90;66.10;;;;;;5117099;28;20228;-76
2023/10/01 07:43:42;;;;;;;12.43;8.00;;;30.70;61.10;;;;;;5116466;28;20229;-75
2023/10/01 07:46:08;;;;;;;10.55;8.13;;;30.80;60.10;;;;;;5117115;28;20308;-75
2023/10/01 07:48:47;;;;;;;12.13;8.23;;;31.20;59.10;;;;;;5116826;28;20549;-76
2023/10/01 07:51:30;;;;;;;10.80;8.70;;;31.00;57.80;;;;;;5117126;28;20167;-75
2023/10/01 07:54:02;;;;;;;12.05;8.30;;;31.10;57.80;;;;;;5117273;28;20188;-75
2023/10/01 07:56:28;;;;;;;12.02;7.90;;;31.70;56.20;;;;;;5116680;28;20630;-75
2023/10/01 08:01:39;;;;;;;11.02;8.32;;;32.90;53.10;;;;;;5116786;28;20193;-76
2023/10/01 08:04:50;;;;;;;11.88;7.95;;;33.10;51.80;;;;;;5116795;28;20167;-76
2023/10/01 08:07:15;;;;;;;11.77;8.68;;;32.70;50.70;;;;;;5116618;28;20169;-75
2023/10/01 08:09:46;;;;;;;12.43;8.60;;;31.50;52.40;;;;;;5116799;28;20252;-75
2023/10/01 08:12:12;;;;;;;11.25;7.80;;;31.10;54.20;;;;;;5117050;28;20250;-76
2023/10/01 08:14:40;;;;;;;11.25;8.38;;;31.50;53.60;;;;;;5116152;28;20163;-76
2023/10/01 08:17:07;;;;;;;10.80;8.15;;;31.50;52.80;;;;;;5116422;28;20217;-75
2023/10/01 08:19:45;;;;;;;11.68;8.98;;;31.50;52.90;;;;;;5116819;28;20175;-76
2023/10/01 08:22:15;;;;;;;9.70;8.25;;;32.10;53.20;;;;;;5117604;28;20246;-76
2023/10/01 08:24:45;;;;;;;10.85;8.65;;;31.90;52.90;;;;;;5117440;28;20175;-76
2023/10/01 08:27:14;;;;;;;12.38;8.60;;;31.60;52.90;;;;;;5118081;28;20168;-76
2023/10/01 08:29:59;;;;;;;11.60;8.57;;;30.50;55.00;;;;;;5116912;28;20202;-76
2023/10/01 08:32:37;;;;;;;12.88;8.85;;;30.20;55.80;;;;;;5116782;28;20166;-76
2023/10/01 08:35:05;;;;;;;11.13;8.40;;;29.00;58.90;;;;;;5116327;28;20175;-76
2023/10/01 08:37:32;;;;;;;11.02;8.25;;;29.10;60.70;;;;;;5116187;28;20175;-76
2023/10/01 08:39:58;;;;;;;11.40;8.60;;;29.40;60.40;;;;;;5115394;28;20500;-76
2023/10/01 08:42:28;;;;;;;13.65;8.27;;;30.30;58.90;;;;;;5115990;28;20168;-76
2023/10/01 08:45:03;;;;;;;13.32;8.73;;;30.50;57.90;;;;;;5116176;28;20167;-76
2023/10/01 08:47:37;;;;;;;11.13;8.70;;;31.20;57.20;;;;;;5116083;28;20182;-76
2023/10/01 08:50:26;;;;;;;12.43;9.07;;;31.40;55.30;;;;;;5117090;28;20297;-77
2023/10/01 08:52:57;;;;;;;11.88;8.60;;;32.40;54.20;;;;;;5118210;28;20190;-76
2023/10/01 08:55:24;;;;;;;12.95;8.05;;;32.10;53.00;;;;;;5114669;28;20167;-77
2023/10/01 08:57:53;;;;;;;9.52;7.82;;;32.50;53.20;;;;;;5115636;28;20163;-77
2023/10/01 09:00:21;;;;;;;9.85;8.25;;;31.90;53.50;;;;;;5116289;28;20175;-76
2023/10/01 09:03:10;;;;;;;9.55;7.55;;;31.50;54.20;;;;;;5115568;28;20178;-76
2023/10/01 09:05:36;;;;;;;11.32;8.77;;;31.50;54.10;;;;;;5114698;28;20168;-76
2023/10/01 09:08:15;;;;;;;12.70;8.48;;;31.40;55.70;;;;;;5115837;28;20175;-77
2023/10/01 09:10:51;;;;;;;10.88;7.97;;;31.70;54.90;;;;;;5114910;28;20207;-77
2023/10/01 09:13:21;;;;;;;12.88;8.35;;;31.40;54.80;;;;;;5114824;28;20220;-76
2023/10/01 09:15:47;;;;;;;10.82;8.05;;;31.40;55.40;;;;;;5115520;28;20183;-77
2023/10/01 09:18:20;;;;;;;10.88;7.60;;;31.20;54.70;;;;;;5115189;28;20250;-77
2023/10/01 09:24:32;;;;;;;11.70;7.93;;;31.50;56.00;;;;;;5115077;28;20175;-76
2023/10/01 09:26:56;;;;;;;11.00;7.80;;;31.10;56.40;;;;;;5115487;28;20175;-76
2023/10/01 09:29:25;;;;;;;10.25;8.32;;;31.20;56.90;;;;;;5115909;28;20252;-76
2023/10/01 09:31:59;;;;;;;10.10;8.00;;;31.00;57.10;;;;;;5116335;28;20254;-76
2023/10/01 09:34:33;;;;;;;11.02;7.53;;;31.60;56.60;;;;;;5114572;28;20210;-76
2023/10/01 09:37:17;;;;;;;10.27;7.80;;;30.60;57.70;;;;;;5116399;28;20197;-77
2023/10/01 09:39:43;;;;;;;14.07;8.48;;;31.90;57.10;;;;;;5114477;28;20693;-77
2023/10/01 09:42:24;;;;;;;10.85;7.80;;;32.90;54.50;;;;;;5114776;28;20206;-76
2023/10/01 09:45:09;;;;;;;9.93;8.02;;;33.30;53.80;;;;;;5114858;28;20170;-76
2023/10/01 09:47:35;;;;;;;12.00;8.18;;;33.70;52.70;;;;;;5114917;28;20170;-76
2023/10/01 09:50:03;;;;;;;12.15;8.15;;;33.60;51.60;;;;;;5114656;28;20199;-77
2023/10/01 09:52:48;;;;;;;9.57;7.80;;;32.20;54.00;;;;;;5114311;28;20163;-76
2023/10/01 09:55:27;;;;;;;11.80;7.70;;;31.50;55.80;;;;;;5116028;28;20175;-78
2023/10/01 09:57:56;;;;;;;9.73;7.35;;;30.90;57.10;;;;;;5116910;28;20193;-77
2023/10/01 10:00:39;;;;;;;11.55;7.50;;;30.40;60.00;;;;;;5113388;28;20175;-76
2023/10/01 10:03:09;;;;;;;10.07;7.88;;;30.80;59.50;;;;;;5115398;28;20167;-77
2023/10/01 10:05:39;;;;;;;9.68;7.75;;;31.00;59.40;;;;;;5117345;27;20212;-77
2023/10/01 10:08:15;;;;;;;11.50;7.80;;;31.20;58.70;;;;;;5117877;28;20650;-77
2023/10/01 10:10:59;;;;;;;11.30;7.45;;;30.70;59.50;;;;;;5115359;28;20221;-76
2023/10/01 10:13:36;;;;;;;10.45;8.20;;;31.00;59.50;;;;;;5115258;28;20182;-76
2023/10/01 10:16:28;;;;;;;10.98;7.60;;;31.20;59.30;;;;;;5115964;28;20199;-76
2023/10/01 10:19:09;;;;;;;11.60;8.23;;;31.60;58.80;;;;;;5117426;28;20213;-77
2023/10/01 10:24:29;;;;;;;10.13;7.28;;;31.50;57.60;;;;;;5115169;28;20167;-77
2023/10/01 10:27:00;;;;;;;11.98;7.40;;;32.10;57.20;;;;;;5117809;28;20159;-76
2023/10/01 10:29:57;;;;;;;11.82;7.38;;;31.40;57.60;;;;;;5116711;28;20198;-78
2023/10/01 10:33:15;;;;;;;10.73;7.75;;;30.40;59.50;;;;;;5120183;28;20246;-76
2023/10/01 10:35:49;;;;;;;12.48;7.80;;;29.40;62.80;;;;;;5099375;28;20186;-76
2023/10/01 10:38:53;;;;;;;10.85;7.47;;;29.10;65.40;;;;;;5115176;28;20167;-76
2023/10/01 10:41:25;;;;;;;9.88;7.43;;;29.20;65.50;;;;;;5113380;28;20175;-76
2023/10/01 10:44:12;;;;;;;12.32;7.38;;;29.10;66.20;;;;;;5117421;28;20186;-77
2023/10/01 10:47:02;;;;;;;9.50;7.13;;;29.60;67.00;;;;;;5114636;28;20208;-76
2023/10/01 10:49:52;;;;;;;9.65;7.15;;;29.30;67.00;;;;;;5115735;28;20206;-77
2023/10/01 10:52:32;;;;;;;10.35;7.20;;;30.20;64.60;;;;;;5113938;28;20171;-76
2023/10/01 10:55:16;;;;;;;10.40;7.32;;;29.40;65.40;;;;;;5113368;28;20231;-77
2023/10/01 10:57:48;;;;;;;9.77;7.07;;;28.50;69.90;;;;;;5113223;28;20174;-76
2023/10/01 11:00:24;;;;;;;10.35;7.75;;;29.30;68.70;;;;;;5114356;28;20189;-77
2023/10/01 11:02:56;;;;;;;15.05;8.10;;;29.40;67.70;;;;;;5115290;28;20218;-77
2023/10/01 11:05:28;;;;;;;12.18;7.75;;;29.70;66.70;;;;;;5114608;28;20174;-78
2023/10/01 11:07:59;;;;;;;10.68;7.65;;;29.50;67.00;;;;;;5113755;28;20186;-77
2023/10/01 11:10:29;;;;;;;10.55;7.43;;;28.90;68.90;;;;;;5115000;28;20709;-76
2023/10/01 11:12:55;;;;;;;10.95;7.40;;;29.40;69.60;;;;;;5116492;28;20167;-77
2023/10/01 11:15:23;;;;;;;9.90;7.53;;;29.40;67.40;;;;;;5113547;28;20329;-77
2023/10/01 11:18:00;;;;;;;9.13;7.30;;;29.40;67.30;;;;;;5113442;28;20595;-77
2023/10/01 11:20:33;;;;;;;12.23;8.18;;;29.30;68.30;;;;;;5113230;28;20171;-76
2023/10/01 11:22:59;;;;;;;10.95;7.55;;;29.50;67.50;;;;;;5112485;28;20276;-75
2023/10/01 11:25:25;;;;;;;9.98;7.78;;;29.20;70.00;;;;;;5113777;28;20566;-77
2023/10/01 11:28:06;;;;;;;10.43;7.60;;;29.10;68.00;;;;;;5112356;28;20201;-77
2023/10/01 11:30:42;;;;;;;12.90;7.97;;;28.60;70.90;;;;;;5112640;28;20205;-77
2023/10/01 11:35:37;;;;;;;11.25;7.63;;;29.60;68.60;;;;;;5112523;28;20519;-77
2023/10/01 11:38:14;;;;;;;10.88;8.23;;;29.50;68.70;;;;;;5112793;28;20311;-75
2023/10/01 11:43:35;;;;;;;12.90;8.52;;;29.60;68.50;;;;;;5113094;28;20223;-75
2023/10/01 11:46:23;;;;;;;10.05;8.27;;;29.80;67.50;;;;;;5112650;28;20168;-75
2023/10/01 11:48:59;;;;;;;11.82;7.93;;;29.00;70.40;;;;;;5111016;28;20174;-75
2023/10/01 11:51:33;;;;;;;13.02;9.10;;;29.50;69.80;;;;;;5112327;28;20214;-76
2023/10/01 11:54:09;;;;;;;12.60;8.70;;;29.90;69.30;;;;;;5113105;28;20476;-76
2023/10/01 11:56:42;;;;;;;9.88;7.90;;;29.80;67.50;;;;;;5113169;28;20171;-74
2023/10/01 11:59:10;;;;;;;12.93;8.52;;;29.40;68.80;;;;;;5112822;28;20194;-74
2023/10/01 12:01:45;;;;;;;11.95;8.88;;;29.60;68.50;;;;;;5112304;28;20233;-75
2023/10/01 12:04:11;;;;;;;12.43;9.18;;;28.50;70.60;;;;;;5112532;28;20163;-75
2023/10/01 12:06:38;;;;;;;13.55;9.32;;;27.80;71.60;;;;;;5111947;28;20257;-75
2023/10/01 12:09:04;;;;;;;12.43;9.48;;;27.30;74.80;;;;;;5111842;28;20211;-75
2023/10/01 12:11:31;;;;;;;14.63;9.63;;;27.40;76.20;;;;;;5112530;28;20688;-75
2023/10/01 12:14:06;;;;;;;13.45;9.63;;;27.10;78.90;;;;;;5112486;28;20183;-75
2023/10/01 12:16:39;;;;;;;17.92;9.93;;;26.60;81.40;;;;;;5114988;28;20556;-75
2023/10/01 12:19:22;;;;;;;12.15;8.77;;;26.20;82.90;;;;;;5115712;28;20170;-74
2023/10/01 12:22:04;;;;;;;11.70;9.02;;;26.30;86.60;;;;;;5115775;28;20227;-76
2023/10/01 12:24:44;;;;;;;17.17;10.05;;;26.20;83.80;;;;;;5115727;28;20171;-76
2023/10/01 12:27:29;;;;;;;15.38;9.88;;;26.30;85.30;;;;;;5114625;28;20312;-74
2023/10/01 12:29:55;;;;;;;17.55;10.30;;;26.00;85.60;;;;;;5116593;28;20206;-74
2023/10/01 12:32:21;;;;;;;15.30;9.95;;;26.00;87.30;;;;;;5115363;28;20164;-74
2023/10/01 12:34:47;;;;;;;15.50;10.20;;;25.90;84.10;;;;;;5115782;28;20638;-75
2023/10/01 12:37:36;;;;;;;12.90;9.68;;;25.70;86.10;;;;;;5116193;28;20174;-75
2023/10/01 12:40:16;;;;;;;14.63;9.88;;;25.50;88.10;;;;;;5115219;28;20187;-75
2023/10/01 12:42:50;;;;;;;15.13;10.05;;;25.20;89.90;;;;;;5115707;28;20184;-75
2023/10/01 12:45:19;;;;;;;17.65;10.52;;;25.30;90.60;;;;;;5116043;28;20171;-75
2023/10/01 12:47:52;;;;;;;17.83;11.02;;;25.30;90.50;;;;;;5115529;28;20167;-77
2023/10/01 12:50:26;;;;;;;14.57;9.38;;;25.20;90.70;;;;;;5115522;28;20221;-75
2023/10/01 12:53:18;;;;;;;13.68;9.52;;;25.10;91.40;;;;;;5114729;28;20166;-73
2023/10/01 12:55:54;;;;;;;13.25;10.07;;;24.90;91.40;;;;;;5115698;28;20199;-75
2023/10/01 12:58:29;;;;;;;14.90;9.73;;;25.00;92.10;;;;;;5115368;28;20175;-75
2023/10/01 13:00:57;;;;;;;14.40;9.80;;;25.20;92.70;;;;;;5115272;28;20170;-75
2023/10/01 13:03:23;;;;;;;14.23;9.88;;;24.90;92.10;;;;;;5115156;28;20163;-74
2023/10/01 13:05:52;;;;;;;14.80;9.68;;;24.80;92.10;;;;;;5114116;28;20190;-75
2023/10/01 13:08:29;;;;;;;16.33;9.70;;;24.90;92.80;;;;;;5115379;28;20678;-75
2023/10/01 13:10:59;;;;;;;12.32;8.80;;;24.90;93.70;;;;;;5115154;28;20206;-75
2023/10/01 13:13:30;;;;;;;13.90;8.93;;;25.00;94.10;;;;;;5115263;28;20630;-75
2023/10/01 13:16:00;;;;;;;12.48;9.00;;;25.10;94.00;;;;;;5115464;28;20203;-75
2023/10/01 13:18:31;;;;;;;12.52;9.23;;;25.20;94.00;;;;;;5114673;28;20175;-74
2023/10/01 13:21:09;;;;;;;14.48;9.82;;;25.20;92.20;;;;;;5115129;28;20219;-74
2023/10/01 13:23:42;;;;;;;13.13;9.73;;;25.40;91.90;;;;;;5115432;28;20258;-74
2023/10/01 13:26:31;;;;;;;14.30;9.80;;;25.40;91.50;;;;;;5115111;28;20172;-75
2023/10/01 13:29:00;;;;;;;14.90;8.80;;;25.50;92.10;;;;;;5114593;28;20500;-74
2023/10/01 13:34:09;;;;;;;13.15;9.63;;;25.30;92.50;;;;;;5114298;28;20526;-75
2023/10/01 13:36:35;;;;;;;12.68;8.98;;;25.40;93.00;;;;;;5114834;28;20175;-74
2023/10/01 14:08:46;;;;;;;14.88;9.02;;;25.70;91.70;;;;;;5114291;28;20174;-75
2023/10/01 14:11:15;;;;;;;12.40;9.63;;;25.60;92.30;;;;;;5114131;28;20187;-75
2023/10/01 14:13:41;;;;;;;12.57;9.00;;;25.60;92.90;;;;;;5113664;28;20155;-74
2023/10/01 14:16:11;;;;;;;12.73;8.95;;;25.60;93.50;;;;;;5114000;28;20202;-75
2023/10/01 14:18:40;;;;;;;12.98;8.73;;;25.50;93.10;;;;;;5113641;28;20198;-75
2023/10/01 14:21:13;;;;;;;12.65;9.10;;;25.50;92.80;;;;;;5114111;28;20227;-75